Time;durP1;ratioP1;P1;durP2;ratioP2;P2;SDS_P1;SDS_P2;PMS_P1;PMS_P2;Temp;Humidity;BMP_temperature;BMP_pressure;BME280_temperature;BME280_humidity;BME280_pressure;Samples;Min_cycle;Max_cycle;Signal;HPM_P1;HPM_P2
2022/03/26 00:01:35;;;;;;;;;;;;;;;10.37;34.47;98993.72;12793648;23;19941;-84
2022/03/26 00:06:56;;;;;;;;;;;;;;;10.29;34.55;98993.75;12732606;23;19923;-84
2022/03/26 00:12:18;;;;;;;;;;;;;;;10.20;34.79;98983.13;12732497;23;19927;-85
2022/03/26 00:17:39;;;;;;;;;;;;;;;10.18;35.59;98982.97;12753122;23;19960;-83
2022/03/26 00:23:01;;;;;;;;;;;;;;;10.15;35.30;98975.00;12773796;23;19923;-84
2022/03/26 00:28:23;;;;;;;;;;;;;;;10.11;35.31;98983.72;12753384;23;19916;-84
2022/03/26 00:33:47;;;;;;;;;;;;;;;10.00;35.36;98970.94;12773416;23;19912;-84
2022/03/26 00:39:09;;;;;;;;;;;;;;;9.90;36.03;98972.81;12774254;23;19917;-83
2022/03/26 00:44:31;;;;;;;;;;;;;;;9.89;35.94;98979.69;12733919;23;19907;-84
2022/03/26 00:49:54;;;;;;;;;;;;;;;9.85;36.87;98978.59;12773454;23;19940;-84
2022/03/26 00:55:15;;;;;;;;;;;;;;;9.80;36.49;98983.06;12753517;23;19999;-83
2022/03/26 01:00:53;;;;;;;;;;;;;;;9.72;37.27;98976.75;12692345;23;19924;-84
2022/03/26 01:06:15;;;;;;;;;;;;;;;9.53;37.34;98981.97;12693145;23;19913;-82
2022/03/26 01:11:37;;;;;;;;;;;;;;;9.41;37.65;98982.34;12692410;23;19920;-85
2022/03/26 01:23:04;;;;;;;;;;;;;;;9.31;37.71;98963.97;12725564;23;19917;-83
2022/03/26 01:28:26;;;;;;;;;;;;;;;9.25;38.00;98968.97;12712905;23;19907;-85
2022/03/26 01:33:48;;;;;;;;;;;;;;;9.19;37.69;98966.38;12673601;23;19901;-84
2022/03/26 01:39:10;;;;;;;;;;;;;;;9.13;38.14;98968.59;12693860;23;19901;-84
2022/03/26 01:44:33;;;;;;;;;;;;;;;9.04;37.94;98961.53;12733995;23;19920;-82
2022/03/26 01:49:54;;;;;;;;;;;;;;;8.97;38.33;98969.88;12693087;23;19900;-83
2022/03/26 01:55:16;;;;;;;;;;;;;;;8.86;38.69;98974.50;12733516;23;19923;-81
2022/03/26 02:00:39;;;;;;;;;;;;;;;8.73;39.13;98971.88;12673473;23;19921;-79
2022/03/26 02:06:01;;;;;;;;;;;;;;;8.64;39.00;98966.84;12692247;23;19925;-79
2022/03/26 02:11:22;;;;;;;;;;;;;;;8.57;39.52;98965.53;12691539;23;19930;-81
2022/03/26 02:16:44;;;;;;;;;;;;;;;8.52;39.59;98965.69;12691881;23;19901;-85
2022/03/26 02:22:05;;;;;;;;;;;;;;;8.47;39.52;98964.56;12698568;23;19904;-81
2022/03/26 02:27:27;;;;;;;;;;;;;;;8.51;40.11;98964.22;12712007;23;19909;-80
2022/03/26 02:32:49;;;;;;;;;;;;;;;8.45;39.91;98961.59;12671680;23;19952;-83
2022/03/26 02:38:10;;;;;;;;;;;;;;;8.37;39.98;98962.84;12671772;23;19900;-80
2022/03/26 02:43:32;;;;;;;;;;;;;;;8.35;39.92;98959.88;12671174;23;19907;-81
2022/03/26 02:48:54;;;;;;;;;;;;;;;8.29;40.60;98969.09;12715715;23;19964;-81
2022/03/26 02:54:21;;;;;;;;;;;;;;;8.29;40.50;98957.97;12598793;23;19921;-82
2022/03/26 02:59:43;;;;;;;;;;;;;;;8.26;40.73;98963.91;12672092;23;19916;-81
2022/03/26 03:05:04;;;;;;;;;;;;;;;8.20;40.68;98972.44;12706937;23;19922;-79
2022/03/26 03:10:26;;;;;;;;;;;;;;;8.14;41.46;98963.50;12675533;23;19901;-84
2022/03/26 03:15:48;;;;;;;;;;;;;;;8.06;41.24;98957.13;12717279;23;19923;-84
2022/03/26 03:33:13;;;;;;;;;;;;;;;7.96;41.55;98948.56;12732307;23;19908;-82
2022/03/26 03:38:35;;;;;;;;;;;;;;;7.97;41.85;98952.09;12695876;23;19948;-82
2022/03/26 03:43:57;;;;;;;;;;;;;;;7.94;42.44;98944.84;12715106;23;19921;-81
2022/03/26 03:49:18;;;;;;;;;;;;;;;7.88;42.33;98947.78;12715166;23;19927;-81
2022/03/26 03:54:40;;;;;;;;;;;;;;;7.81;42.52;98954.03;12670375;23;19916;-81
2022/03/26 04:00:01;;;;;;;;;;;;;;;7.72;42.44;98935.84;12660087;23;19970;-83
2022/03/26 04:11:38;;;;;;;;;;;;;;;7.73;42.78;98939.38;12620066;23;19921;-80
2022/03/26 04:23:01;;;;;;;;;;;;;;;7.67;42.93;98945.06;12613871;23;19901;-82
2022/03/26 04:28:23;;;;;;;;;;;;;;;7.68;42.80;98941.00;12706315;23;20002;-84
2022/03/26 04:33:44;;;;;;;;;;;;;;;7.61;43.35;98946.50;12675720;23;19965;-83
2022/03/26 04:39:05;;;;;;;;;;;;;;;7.56;43.74;98953.72;12695572;23;19908;-82
2022/03/26 05:02:39;;;;;;;;;;;;;;;7.79;43.62;98955.88;12640234;23;19921;-83
2022/03/26 05:14:02;;;;;;;;;;;;;;;8.03;43.85;98952.69;12659511;23;19916;-81
2022/03/26 05:19:24;;;;;;;;;;;;;;;8.30;43.52;98959.47;12674263;23;19921;-82
2022/03/26 05:24:45;;;;;;;;;;;;;;;8.62;43.49;98954.78;12634512;23;19924;-82
2022/03/26 05:30:08;;;;;;;;;;;;;;;9.00;43.02;98947.25;12654437;23;19901;-83
2022/03/26 05:35:29;;;;;;;;;;;;;;;9.49;42.92;98967.69;12632977;23;19920;-82
2022/03/26 05:40:51;;;;;;;;;;;;;;;10.03;42.00;98955.09;12632970;23;19905;-81
2022/03/26 05:46:13;;;;;;;;;;;;;;;10.70;41.96;98960.97;12583095;23;19926;-76
2022/03/26 05:51:37;;;;;;;;;;;;;;;11.68;40.88;98961.56;12608736;23;20418;-79
2022/03/26 05:56:58;;;;;;;;;;;;;;;13.62;38.39;98968.34;12599264;23;19960;-76
2022/03/26 06:02:21;;;;;;;;;;;;;;;15.60;36.81;98969.81;12620831;23;20232;-78
2022/03/26 06:07:41;;;;;;;;;;;;;;;16.51;34.69;98966.59;12642856;23;20244;-76
2022/03/26 06:13:02;;;;;;;;;;;;;;;16.85;34.73;98981.41;12584057;23;19964;-77
2022/03/26 06:18:23;;;;;;;;;;;;;;;17.50;34.48;98976.19;12616996;23;19924;-82
2022/03/26 06:23:44;;;;;;;;;;;;;;;19.44;35.41;98971.53;12577094;23;19924;-86
2022/03/26 06:29:04;;;;;;;;;;;;;;;23.69;29.50;98986.66;12597558;23;19948;-85
2022/03/26 06:34:25;;;;;;;;;;;;;;;27.44;19.77;98986.41;12596788;23;19924;-84
2022/03/26 06:39:46;;;;;;;;;;;;;;;30.08;22.44;98988.97;12578037;23;19917;-83
2022/03/26 06:45:07;;;;;;;;;;;;;;;31.78;15.06;98991.50;12598287;23;20328;-83
2022/03/26 06:50:28;;;;;;;;;;;;;;;33.19;14.42;98997.97;12578729;23;19917;-83
2022/03/26 06:55:49;;;;;;;;;;;;;;;34.03;14.22;99001.22;12577926;23;19924;-81
2022/03/26 07:01:09;;;;;;;;;;;;;;;34.90;11.98;99009.22;12638928;23;19917;-87
2022/03/26 07:06:30;;;;;;;;;;;;;;;36.36;10.90;99005.91;12579870;23;19917;-86
2022/03/26 07:11:51;;;;;;;;;;;;;;;38.07;9.91;99008.41;12578547;23;19921;-86
2022/03/26 07:17:11;;;;;;;;;;;;;;;38.89;9.45;99022.41;12558608;23;19921;-86
2022/03/26 07:22:34;;;;;;;;;;;;;;;39.98;7.89;99023.69;12578989;23;19921;-87
2022/03/26 07:27:54;;;;;;;;;;;;;;;39.49;7.37;99027.34;12559059;23;20281;-87
2022/03/26 07:33:15;;;;;;;;;;;;;;;38.01;7.90;99040.59;12578607;23;19924;-87
2022/03/26 07:38:36;;;;;;;;;;;;;;;33.45;10.18;99029.00;12579099;23;19917;-86
2022/03/26 07:43:57;;;;;;;;;;;;;;;37.43;9.53;99034.53;12577631;23;19918;-87
2022/03/26 07:49:17;;;;;;;;;;;;;;;40.82;7.44;99032.69;12579003;23;19917;-87
2022/03/26 07:54:38;;;;;;;;;;;;;;;41.08;7.04;99028.13;12578390;23;19917;-87
2022/03/26 07:59:59;;;;;;;;;;;;;;;41.34;7.08;99029.41;12574269;23;19921;-87
2022/03/26 08:05:23;;;;;;;;;;;;;;;42.30;6.64;99030.09;12579327;23;19933;-85
2022/03/26 08:10:43;;;;;;;;;;;;;;;44.45;5.42;99021.16;12577333;23;19917;-84
2022/03/26 08:16:04;;;;;;;;;;;;;;;46.58;4.62;99023.59;12533920;23;19917;-85
2022/03/26 08:21:27;;;;;;;;;;;;;;;47.98;3.72;99037.91;12577772;23;19917;-85
2022/03/26 08:26:48;;;;;;;;;;;;;;;48.30;3.55;99017.31;12597832;23;19917;-85
2022/03/26 08:32:12;;;;;;;;;;;;;;;48.79;3.43;99011.03;12577689;23;19992;-85
2022/03/26 08:37:34;;;;;;;;;;;;;;;49.79;2.71;99019.53;12574423;23;19917;-85
2022/03/26 08:42:58;;;;;;;;;;;;;;;49.71;2.92;99013.50;12553607;23;19953;-85
2022/03/26 08:48:22;;;;;;;;;;;;;;;50.08;2.44;99008.53;12555108;23;19917;-86
2022/03/26 08:53:43;;;;;;;;;;;;;;;50.61;2.44;99010.50;12577949;23;19980;-81
2022/03/26 08:59:05;;;;;;;;;;;;;;;50.68;2.73;99012.13;12577881;23;19918;-79
2022/03/26 09:04:26;;;;;;;;;;;;;;;51.06;2.38;99013.66;12576626;23;20412;-78
2022/03/26 09:09:47;;;;;;;;;;;;;;;52.05;1.55;99007.22;12576677;23;19923;-79
2022/03/26 09:15:12;;;;;;;;;;;;;;;52.22;1.99;99003.59;12577164;23;19917;-86
2022/03/26 09:20:33;;;;;;;;;;;;;;;52.11;1.75;99003.72;12556476;23;20245;-86
2022/03/26 09:25:55;;;;;;;;;;;;;;;52.57;1.46;99002.06;12552891;23;19925;-82
2022/03/26 09:31:18;;;;;;;;;;;;;;;52.56;1.86;98994.00;12577387;23;19917;-79
2022/03/26 09:36:40;;;;;;;;;;;;;;;53.05;1.36;98989.78;12576599;23;19917;-79
2022/03/26 09:42:01;;;;;;;;;;;;;;;53.21;1.31;98976.44;12576285;23;19928;-79
2022/03/26 09:47:22;;;;;;;;;;;;;;;52.94;1.20;98972.09;12576777;23;19917;-79
2022/03/26 09:52:44;;;;;;;;;;;;;;;53.24;1.06;98980.63;12552580;23;19917;-79
2022/03/26 09:58:05;;;;;;;;;;;;;;;52.89;1.12;98977.00;12615815;23;19923;-81
2022/03/26 10:03:26;;;;;;;;;;;;;;;52.68;1.57;98972.09;12576341;23;19939;-79
2022/03/26 10:08:48;;;;;;;;;;;;;;;53.05;1.04;98975.56;12597026;23;19923;-79
2022/03/26 10:14:09;;;;;;;;;;;;;;;52.84;1.02;98976.66;12537108;23;19988;-80
2022/03/26 10:19:30;;;;;;;;;;;;;;;53.07;1.00;98962.75;12555929;23;19968;-78
2022/03/26 10:24:51;;;;;;;;;;;;;;;52.16;1.07;98948.22;12536735;23;20285;-79
2022/03/26 10:30:13;;;;;;;;;;;;;;;52.02;1.49;98955.34;12536999;23;19927;-89
2022/03/26 10:35:34;;;;;;;;;;;;;;;52.33;1.35;98951.22;12536925;23;19974;-89
2022/03/26 10:40:59;;;;;;;;;;;;;;;52.99;0.66;98936.66;12516554;23;19917;-90
2022/03/26 10:46:44;;;;;;;;;;;;;;;53.26;0.62;98944.66;12544795;23;19917;-86
2022/03/26 10:52:12;;;;;;;;;;;;;;;52.72;0.64;98944.22;12559381;23;19996;-89
2022/03/26 10:57:33;;;;;;;;;;;;;;;51.74;1.23;98931.66;12519925;23;19941;-88
2022/03/26 11:02:54;;;;;;;;;;;;;;;50.23;1.13;98922.09;12560537;23;19918;-87
2022/03/26 11:08:15;;;;;;;;;;;;;;;44.66;2.37;98911.94;12539975;23;19917;-86
2022/03/26 11:13:36;;;;;;;;;;;;;;;39.49;5.09;98917.09;12519886;23;19945;-87
2022/03/26 11:18:57;;;;;;;;;;;;;;;37.27;5.21;98904.59;12520234;23;19921;-87
2022/03/26 11:24:33;;;;;;;;;;;;;;;35.54;6.49;98908.34;12538856;23;19917;-86
2022/03/26 11:30:14;;;;;;;;;;;;;;;33.34;8.06;98894.50;12539054;23;19992;-88
2022/03/26 11:35:34;;;;;;;;;;;;;;;32.05;9.47;98880.38;12578540;23;19918;-88
2022/03/26 11:40:56;;;;;;;;;;;;;;;31.20;9.80;98888.88;12557332;23;19933;-87
2022/03/26 11:51:58;;;;;;;;;;;;;;;30.51;10.25;98874.13;12542394;23;19917;-79
2022/03/26 11:57:19;;;;;;;;;;;;;;;30.06;10.38;98870.91;12558777;23;19917;-81
2022/03/26 12:02:46;;;;;;;;;;;;;;;29.54;10.34;98866.88;12558717;23;19923;-79
2022/03/26 12:08:16;;;;;;;;;;;;;;;29.06;11.21;98856.28;12558651;23;19928;-79
2022/03/26 12:13:37;;;;;;;;;;;;;;;28.92;11.52;98852.50;12563302;23;19918;-78
2022/03/26 12:19:00;;;;;;;;;;;;;;;28.78;11.34;98848.03;12558179;23;19972;-78
2022/03/26 12:24:26;;;;;;;;;;;;;;;28.22;12.26;98830.72;12558447;23;19918;-81
2022/03/26 12:29:46;;;;;;;;;;;;;;;27.33;12.70;98827.84;12535194;23;19918;-79
2022/03/26 12:35:09;;;;;;;;;;;;;;;27.53;12.54;98830.34;12534863;23;19985;-80
2022/03/26 12:40:30;;;;;;;;;;;;;;;27.54;12.31;98828.91;12554736;23;19925;-83
2022/03/26 12:45:51;;;;;;;;;;;;;;;27.18;13.70;98828.25;12574361;23;19921;-80
2022/03/26 12:51:12;;;;;;;;;;;;;;;26.81;13.75;98830.38;12534568;23;19925;-81
2022/03/26 12:56:33;;;;;;;;;;;;;;;26.70;13.90;98823.00;12594673;23;20294;-80
2022/03/26 13:01:58;;;;;;;;;;;;;;;26.69;14.13;98810.09;12554308;23;19917;-81
2022/03/26 13:07:22;;;;;;;;;;;;;;;26.59;14.13;98804.16;12537436;23;20005;-78
2022/03/26 13:12:42;;;;;;;;;;;;;;;26.36;14.62;98800.81;12599065;23;19984;-79
2022/03/26 13:18:05;;;;;;;;;;;;;;;26.12;14.80;98798.13;12594685;23;19917;-81
2022/03/26 13:23:27;;;;;;;;;;;;;;;25.81;14.99;98802.41;12574103;23;20273;-81
2022/03/26 13:28:50;;;;;;;;;;;;;;;25.60;14.91;98809.03;12554066;23;20285;-81
2022/03/26 13:34:14;;;;;;;;;;;;;;;25.48;15.21;98797.25;12573920;23;19917;-81
2022/03/26 13:39:35;;;;;;;;;;;;;;;25.33;15.47;98794.06;12574111;23;19917;-79
2022/03/26 13:44:56;;;;;;;;;;;;;;;25.30;15.58;98783.25;12592910;23;19917;-79
2022/03/26 13:50:16;;;;;;;;;;;;;;;25.12;15.76;98783.50;12573050;23;19917;-79
2022/03/26 13:55:37;;;;;;;;;;;;;;;24.88;15.84;98785.69;12593434;23;20333;-79
2022/03/26 14:00:58;;;;;;;;;;;;;;;24.52;16.05;98781.16;12553668;23;19921;-80
2022/03/26 14:06:19;;;;;;;;;;;;;;;24.41;16.27;98772.94;12573460;23;20317;-80
2022/03/26 14:11:39;;;;;;;;;;;;;;;24.28;16.32;98772.56;12566222;23;20273;-80
2022/03/26 14:17:00;;;;;;;;;;;;;;;23.97;16.49;98764.50;12593679;23;19917;-80
2022/03/26 14:22:23;;;;;;;;;;;;;;;23.95;16.90;98759.47;12597117;23;19947;-80
2022/03/26 14:27:44;;;;;;;;;;;;;;;23.89;16.98;98767.09;12596698;23;19921;-80
2022/03/26 14:33:05;;;;;;;;;;;;;;;23.75;17.00;98749.56;12616813;23;19920;-80
2022/03/26 14:38:26;;;;;;;;;;;;;;;23.36;17.20;98757.56;12597013;23;19925;-80
2022/03/26 14:43:47;;;;;;;;;;;;;;;23.13;17.38;98750.38;12558812;23;19917;-80
2022/03/26 14:49:08;;;;;;;;;;;;;;;22.99;17.55;98755.59;12618618;23;19924;-81
2022/03/26 14:54:29;;;;;;;;;;;;;;;22.83;17.50;98755.00;12599173;23;19967;-84
2022/03/26 14:59:50;;;;;;;;;;;;;;;22.69;17.18;98748.81;12598888;23;19940;-78
2022/03/26 15:05:11;;;;;;;;;;;;;;;22.59;17.56;98745.63;12591906;23;19927;-83
2022/03/26 15:10:33;;;;;;;;;;;;;;;22.39;17.61;98751.28;12577076;23;19945;-82
2022/03/26 15:15:53;;;;;;;;;;;;;;;22.16;18.15;98750.44;12579005;23;19917;-81
2022/03/26 15:21:16;;;;;;;;;;;;;;;21.99;18.16;98754.75;12598949;23;19917;-81
2022/03/26 15:26:38;;;;;;;;;;;;;;;21.74;18.44;98749.50;12639881;23;19924;-78
2022/03/26 15:32:01;;;;;;;;;;;;;;;21.54;18.68;98743.03;12599043;23;19921;-77
2022/03/26 15:37:22;;;;;;;;;;;;;;;21.42;19.07;98752.53;12618355;23;19917;-79
2022/03/26 15:42:43;;;;;;;;;;;;;;;21.22;19.50;98748.81;12598395;23;19959;-77
2022/03/26 15:48:04;;;;;;;;;;;;;;;21.13;19.40;98749.84;12598422;23;20253;-78
2022/03/26 15:53:24;;;;;;;;;;;;;;;20.90;19.71;98744.59;12598604;23;19921;-79
2022/03/26 15:58:45;;;;;;;;;;;;;;;20.59;19.93;98751.81;12597623;23;20343;-76
2022/03/26 16:04:06;;;;;;;;;;;;;;;20.45;19.72;98754.00;12593910;23;19942;-77
2022/03/26 16:09:27;;;;;;;;;;;;;;;20.31;19.95;98756.91;12618512;23;20265;-76
2022/03/26 16:14:47;;;;;;;;;;;;;;;20.05;20.66;98764.94;12598007;23;20317;-77
2022/03/26 16:20:08;;;;;;;;;;;;;;;19.87;20.55;98759.13;12596388;23;20307;-77
2022/03/26 16:25:40;;;;;;;;;;;;;;;19.77;20.85;98769.25;12561329;23;20264;-77
2022/03/26 16:31:01;;;;;;;;;;;;;;;19.65;21.20;98772.25;12615044;23;19968;-77
2022/03/26 16:36:22;;;;;;;;;;;;;;;19.48;21.28;98773.53;12616725;23;19948;-77
2022/03/26 16:41:45;;;;;;;;;;;;;;;19.39;22.04;98774.50;12618209;23;19953;-83
2022/03/26 16:47:06;;;;;;;;;;;;;;;19.25;22.13;98779.47;12598099;23;20308;-83
2022/03/26 16:52:27;;;;;;;;;;;;;;;19.09;22.25;98785.75;12577563;23;19943;-84
2022/03/26 16:57:49;;;;;;;;;;;;;;;19.01;22.39;98787.44;12597303;23;20389;-82
2022/03/26 17:03:11;;;;;;;;;;;;;;;18.93;22.89;98787.06;12578224;23;20321;-86
2022/03/26 17:08:33;;;;;;;;;;;;;;;18.91;23.16;98786.94;12596623;23;19917;-88
2022/03/26 17:13:54;;;;;;;;;;;;;;;18.83;23.25;98787.28;12560455;23;19944;-82
2022/03/26 17:19:15;;;;;;;;;;;;;;;18.78;23.45;98791.25;12597037;23;19917;-82
2022/03/26 17:24:35;;;;;;;;;;;;;;;18.61;24.14;98786.78;12597180;23;20372;-82
2022/03/26 17:29:56;;;;;;;;;;;;;;;18.47;24.34;98795.28;12576201;23;19925;-84
2022/03/26 17:35:18;;;;;;;;;;;;;;;18.34;24.88;98796.00;12617398;23;19949;-80
2022/03/26 17:40:39;;;;;;;;;;;;;;;18.08;25.06;98803.03;12596141;23;19922;-79
2022/03/26 17:45:59;;;;;;;;;;;;;;;17.93;25.21;98807.16;12576520;23;19988;-79
2022/03/26 17:51:20;;;;;;;;;;;;;;;17.86;25.98;98805.38;12615755;23;19917;-80
2022/03/26 17:56:41;;;;;;;;;;;;;;;17.92;26.25;98803.59;12596825;23;19924;-89
2022/03/26 18:02:02;;;;;;;;;;;;;;;18.02;26.38;98809.06;12595697;23;19921;-87
2022/03/26 18:07:25;;;;;;;;;;;;;;;18.06;26.36;98819.88;12596580;23;19918;-87
2022/03/26 18:12:46;;;;;;;;;;;;;;;18.07;26.88;98829.81;12564256;23;19921;-85
2022/03/26 18:18:07;;;;;;;;;;;;;;;18.06;26.95;98839.66;12575927;23;20281;-87
2022/03/26 18:23:28;;;;;;;;;;;;;;;18.08;27.02;98839.75;12595638;23;19924;-85
2022/03/26 18:28:49;;;;;;;;;;;;;;;18.02;27.47;98843.69;12576560;23;20309;-85
2022/03/26 18:34:10;;;;;;;;;;;;;;;18.00;27.51;98842.88;12555852;23;19923;-85
2022/03/26 18:39:34;;;;;;;;;;;;;;;17.94;27.74;98842.50;12595323;23;19917;-86
2022/03/26 18:44:57;;;;;;;;;;;;;;;17.87;28.46;98849.94;12558285;23;19917;-78
2022/03/26 18:50:18;;;;;;;;;;;;;;;17.76;28.69;98850.72;12616114;23;19924;-85
2022/03/26 18:55:39;;;;;;;;;;;;;;;17.68;28.09;98853.78;12596012;23;19924;-78
2022/03/26 19:01:00;;;;;;;;;;;;;;;17.64;28.55;98845.06;12615377;23;19965;-79
2022/03/26 19:06:21;;;;;;;;;;;;;;;17.64;28.92;98856.34;12586183;23;19917;-88
2022/03/26 19:11:42;;;;;;;;;;;;;;;17.59;29.00;98860.31;12613316;23;19918;-88
2022/03/26 19:17:03;;;;;;;;;;;;;;;17.50;29.67;98866.09;12599521;23;19964;-87
2022/03/26 19:22:24;;;;;;;;;;;;;;;17.45;29.20;98860.22;12599557;23;19917;-84
2022/03/26 19:27:44;;;;;;;;;;;;;;;17.39;29.72;98867.59;12599001;23;20252;-86
2022/03/26 19:33:05;;;;;;;;;;;;;;;17.29;30.58;98867.75;12598963;23;19965;-84
2022/03/26 19:38:26;;;;;;;;;;;;;;;17.26;30.30;98871.03;12598361;23;19918;-85
2022/03/26 19:43:47;;;;;;;;;;;;;;;17.23;30.28;98870.19;12578402;23;19969;-85
2022/03/26 19:49:08;;;;;;;;;;;;;;;17.16;30.86;98879.63;12618984;23;20317;-80
2022/03/26 19:54:28;;;;;;;;;;;;;;;17.07;30.90;98877.69;12598768;23;19924;-83
2022/03/26 19:59:49;;;;;;;;;;;;;;;17.06;31.42;98881.84;12598687;23;19917;-82
2022/03/26 20:05:10;;;;;;;;;;;;;;;17.00;31.59;98895.59;12598695;23;19961;-81
2022/03/26 20:10:31;;;;;;;;;;;;;;;16.94;31.76;98892.41;12578285;23;19917;-83
2022/03/26 20:15:52;;;;;;;;;;;;;;;16.87;32.02;98889.22;12578003;23;20011;-83
2022/03/26 20:21:12;;;;;;;;;;;;;;;16.90;31.85;98895.72;12578066;23;19940;-80
2022/03/26 20:26:33;;;;;;;;;;;;;;;16.91;31.83;98891.56;12597532;23;19976;-79
2022/03/26 20:31:54;;;;;;;;;;;;;;;16.85;32.43;98897.56;12598145;23;20348;-85
2022/03/26 20:37:34;;;;;;;;;;;;;;;16.87;32.17;98906.13;12599026;23;20329;-85
2022/03/26 20:43:08;;;;;;;;;;;;;;;16.79;32.55;98902.84;12640499;23;19916;-83
2022/03/26 20:48:29;;;;;;;;;;;;;;;16.74;32.78;98909.56;12637264;23;19917;-82
2022/03/26 20:53:50;;;;;;;;;;;;;;;16.71;33.49;98907.97;12677495;23;20324;-81
2022/03/26 20:59:10;;;;;;;;;;;;;;;16.57;33.20;98918.31;12657907;23;19920;-81
2022/03/26 21:04:31;;;;;;;;;;;;;;;16.54;33.29;98923.09;12622405;23;19921;-81
2022/03/26 21:09:52;;;;;;;;;;;;;;;16.52;33.27;98927.88;12576402;23;20335;-82
2022/03/26 21:15:25;;;;;;;;;;;;;;;16.45;34.16;98935.22;12611960;23;19924;-82
2022/03/26 21:20:58;;;;;;;;;;;;;;;16.27;34.25;98939.69;12613083;23;19921;-83
2022/03/26 21:26:19;;;;;;;;;;;;;;;16.21;34.95;98945.69;12594657;23;20020;-83
2022/03/26 21:31:55;;;;;;;;;;;;;;;16.11;34.82;98949.88;12554686;23;20347;-81
2022/03/26 21:37:16;;;;;;;;;;;;;;;16.16;34.81;98957.28;12591467;23;19917;-80
2022/03/26 21:42:52;;;;;;;;;;;;;;;16.10;35.50;98962.50;12592971;23;19921;-80
2022/03/26 21:48:14;;;;;;;;;;;;;;;15.94;35.73;98976.28;12613184;23;20336;-80
2022/03/26 21:53:48;;;;;;;;;;;;;;;15.80;36.81;98978.13;12541268;23;20381;-80
2022/03/26 21:59:27;;;;;;;;;;;;;;;15.69;37.14;98977.47;12622458;23;19932;-80
2022/03/26 22:05:00;;;;;;;;;;;;;;;15.51;39.01;98983.91;12567942;23;19917;-80
2022/03/26 22:10:21;;;;;;;;;;;;;;;15.39;38.32;98983.81;12593569;23;19930;-79
2022/03/26 22:15:51;;;;;;;;;;;;;;;15.27;40.88;98988.63;12617863;23;19901;-79
2022/03/26 22:21:12;;;;;;;;;;;;;;;15.11;41.56;98991.78;12587962;23;19911;-79
